sensor_id;sensor_type;location;lat;lon;timestamp;pressure;altitude;pressure_sealevel;temperature;humidity
19005;BME280;9635;52.078;8.648;2023-02-17T00:03:19;100753.19;;;7.09;95.16
19005;BME280;9635;52.078;8.648;2023-02-17T00:08:22;100745.31;;;7.36;92.99
19005;BME280;9635;52.078;8.648;2023-02-17T00:13:26;100715.22;;;7.18;94.88
19005;BME280;9635;52.078;8.648;2023-02-17T00:18:29;100701.31;;;7.13;94.49
19005;BME280;9635;52.078;8.648;2023-02-17T00:23:31;100706.84;;;7.39;93.73
19005;BME280;9635;52.078;8.648;2023-02-17T00:28:35;100704.94;;;7.41;93.19
19005;BME280;9635;52.078;8.648;2023-02-17T00:33:38;100693.28;;;7.13;94.92
19005;BME280;9635;52.078;8.648;2023-02-17T00:38:41;100704.25;;;7.23;96.04
19005;BME280;9635;52.078;8.648;2023-02-17T00:43:46;100705.59;;;7.44;94.04
19005;BME280;9635;52.078;8.648;2023-02-17T00:48:49;100697.75;;;7.41;94.65
19005;BME280;9635;52.078;8.648;2023-02-17T00:53:52;100692.31;;;7.57;93.41
19005;BME280;9635;52.078;8.648;2023-02-17T00:58:56;100703.50;;;7.49;93.24
19005;BME280;9635;52.078;8.648;2023-02-17T01:03:59;100720.41;;;7.36;94.77
19005;BME280;9635;52.078;8.648;2023-02-17T01:09:03;100695.31;;;7.80;92.40
19005;BME280;9635;52.078;8.648;2023-02-17T01:14:07;100682.19;;;7.48;94.90
19005;BME280;9635;52.078;8.648;2023-02-17T01:19:14;100687.88;;;7.70;93.91
19005;BME280;9635;52.078;8.648;2023-02-17T01:24:21;100684.66;;;7.51;94.61
19005;BME280;9635;52.078;8.648;2023-02-17T01:29:25;100683.50;;;7.69;94.53
19005;BME280;9635;52.078;8.648;2023-02-17T01:34:28;100674.16;;;7.48;95.44
19005;BME280;9635;52.078;8.648;2023-02-17T01:39:30;100674.97;;;7.77;95.07
19005;BME280;9635;52.078;8.648;2023-02-17T01:44:35;100665.84;;;7.67;94.74
19005;BME280;9635;52.078;8.648;2023-02-17T01:49:39;100644.75;;;7.48;96.16
19005;BME280;9635;52.078;8.648;2023-02-17T01:54:46;100651.63;;;7.66;95.24
19005;BME280;9635;52.078;8.648;2023-02-17T01:59:53;100647.03;;;7.68;94.63
19005;BME280;9635;52.078;8.648;2023-02-17T02:04:56;100634.47;;;7.83;93.42
19005;BME280;9635;52.078;8.648;2023-02-17T02:09:59;100620.03;;;7.86;93.34
19005;BME280;9635;52.078;8.648;2023-02-17T02:15:06;100619.97;;;7.73;93.78
19005;BME280;9635;52.078;8.648;2023-02-17T02:20:34;100614.31;;;7.78;94.72
19005;BME280;9635;52.078;8.648;2023-02-17T02:26:13;100601.50;;;7.83;94.73
19005;BME280;9635;52.078;8.648;2023-02-17T02:31:28;100590.25;;;7.78;93.75
19005;BME280;9635;52.078;8.648;2023-02-17T02:36:38;100603.31;;;8.09;93.07
19005;BME280;9635;52.078;8.648;2023-02-17T02:41:45;100598.34;;;7.90;93.87
19005;BME280;9635;52.078;8.648;2023-02-17T02:46:57;100593.34;;;8.11;93.13
19005;BME280;9635;52.078;8.648;2023-02-17T02:52:07;100596.94;;;7.98;93.67
19005;BME280;9635;52.078;8.648;2023-02-17T02:57:30;100592.88;;;7.92;93.86
19005;BME280;9635;52.078;8.648;2023-02-17T03:02:44;100593.34;;;7.71;96.98
19005;BME280;9635;52.078;8.648;2023-02-17T03:07:58;100590.31;;;7.90;94.52
19005;BME280;9635;52.078;8.648;2023-02-17T03:13:03;100579.63;;;8.03;93.60
19005;BME280;9635;52.078;8.648;2023-02-17T03:18:06;100557.03;;;7.94;95.05
19005;BME280;9635;52.078;8.648;2023-02-17T03:23:11;100546.34;;;7.94;94.80
19005;BME280;9635;52.078;8.648;2023-02-17T03:28:14;100521.72;;;7.89;95.65
19005;BME280;9635;52.078;8.648;2023-02-17T03:33:17;100528.28;;;7.98;94.40
19005;BME280;9635;52.078;8.648;2023-02-17T03:38:22;100547.19;;;7.82;96.09
19005;BME280;9635;52.078;8.648;2023-02-17T03:43:25;100544.00;;;7.90;96.91
19005;BME280;9635;52.078;8.648;2023-02-17T03:48:28;100525.78;;;7.95;96.32
19005;BME280;9635;52.078;8.648;2023-02-17T03:53:32;100524.50;;;8.01;94.90
19005;BME280;9635;52.078;8.648;2023-02-17T03:58:35;100517.72;;;7.69;96.61
19005;BME280;9635;52.078;8.648;2023-02-17T04:03:39;100528.25;;;7.85;96.25
19005;BME280;9635;52.078;8.648;2023-02-17T04:08:43;100532.25;;;8.31;94.25
19005;BME280;9635;52.078;8.648;2023-02-17T04:13:46;100520.03;;;8.01;94.21
19005;BME280;9635;52.078;8.648;2023-02-17T04:18:49;100511.25;;;7.99;94.92
19005;BME280;9635;52.078;8.648;2023-02-17T04:23:53;100534.09;;;8.17;94.36
19005;BME280;9635;52.078;8.648;2023-02-17T04:28:56;100539.66;;;8.27;92.81
19005;BME280;9635;52.078;8.648;2023-02-17T04:33:59;100539.84;;;8.11;92.98
19005;BME280;9635;52.078;8.648;2023-02-17T04:39:03;100531.81;;;7.99;93.54
19005;BME280;9635;52.078;8.648;2023-02-17T04:44:06;100528.75;;;8.17;91.69
19005;BME280;9635;52.078;8.648;2023-02-17T04:49:08;100522.84;;;8.12;91.91
19005;BME280;9635;52.078;8.648;2023-02-17T04:54:13;100514.63;;;8.28;90.29
19005;BME280;9635;52.078;8.648;2023-02-17T04:59:15;100520.16;;;8.25;90.55
19005;BME280;9635;52.078;8.648;2023-02-17T05:04:18;100486.13;;;8.40;88.91
19005;BME280;9635;52.078;8.648;2023-02-17T05:09:23;100489.88;;;8.25;90.05
19005;BME280;9635;52.078;8.648;2023-02-17T05:14:25;100484.66;;;8.49;87.91
19005;BME280;9635;52.078;8.648;2023-02-17T05:19:28;100491.47;;;8.14;89.58
19005;BME280;9635;52.078;8.648;2023-02-17T05:24:32;100480.53;;;8.69;86.66
19005;BME280;9635;52.078;8.648;2023-02-17T05:29:37;100489.34;;;8.32;88.12
19005;BME280;9635;52.078;8.648;2023-02-17T05:34:40;100499.06;;;8.33;87.57
19005;BME280;9635;52.078;8.648;2023-02-17T05:39:44;100479.50;;;8.58;86.76
19005;BME280;9635;52.078;8.648;2023-02-17T05:44:47;100495.03;;;8.53;86.93
19005;BME280;9635;52.078;8.648;2023-02-17T05:49:50;100476.25;;;8.79;85.59
19005;BME280;9635;52.078;8.648;2023-02-17T05:54:54;100469.72;;;8.45;87.13
19005;BME280;9635;52.078;8.648;2023-02-17T05:59:57;100465.25;;;8.20;87.09
19005;BME280;9635;52.078;8.648;2023-02-17T06:05:00;100463.75;;;8.41;86.14
19005;BME280;9635;52.078;8.648;2023-02-17T06:10:06;100440.53;;;8.29;86.90
19005;BME280;9635;52.078;8.648;2023-02-17T06:15:09;100452.63;;;8.47;85.56
19005;BME280;9635;52.078;8.648;2023-02-17T06:20:12;100450.91;;;8.46;85.47
19005;BME280;9635;52.078;8.648;2023-02-17T06:25:17;100433.13;;;8.58;85.62
19005;BME280;9635;52.078;8.648;2023-02-17T06:30:20;100442.91;;;8.83;84.87
19005;BME280;9635;52.078;8.648;2023-02-17T06:35:23;100445.19;;;8.64;84.86
19005;BME280;9635;52.078;8.648;2023-02-17T06:40:28;100465.69;;;8.52;84.99
19005;BME280;9635;52.078;8.648;2023-02-17T06:45:31;100463.75;;;8.54;85.28
19005;BME280;9635;52.078;8.648;2023-02-17T06:50:34;100453.75;;;8.69;84.95
19005;BME280;9635;52.078;8.648;2023-02-17T06:55:38;100467.84;;;8.47;85.56
19005;BME280;9635;52.078;8.648;2023-02-17T07:00:41;100454.13;;;8.64;84.70
19005;BME280;9635;52.078;8.648;2023-02-17T07:05:44;100442.66;;;8.36;85.03
19005;BME280;9635;52.078;8.648;2023-02-17T07:10:48;100443.41;;;8.51;83.97
19005;BME280;9635;52.078;8.648;2023-02-17T07:15:51;100470.06;;;8.53;84.72
19005;BME280;9635;52.078;8.648;2023-02-17T07:20:54;100427.06;;;8.80;83.68
19005;BME280;9635;52.078;8.648;2023-02-17T07:26:01;100440.53;;;8.54;84.12
19005;BME280;9635;52.078;8.648;2023-02-17T07:31:06;100445.13;;;8.52;84.24
19005;BME280;9635;52.078;8.648;2023-02-17T07:36:11;100419.91;;;8.80;83.00
19005;BME280;9635;52.078;8.648;2023-02-17T07:41:17;100414.34;;;8.71;83.23
19005;BME280;9635;52.078;8.648;2023-02-17T07:46:21;100426.75;;;8.72;83.38
19005;BME280;9635;52.078;8.648;2023-02-17T07:51:24;100428.94;;;8.67;84.16
19005;BME280;9635;52.078;8.648;2023-02-17T07:56:29;100448.66;;;8.53;85.71
19005;BME280;9635;52.078;8.648;2023-02-17T08:01:34;100426.06;;;8.57;85.94
19005;BME280;9635;52.078;8.648;2023-02-17T08:06:38;100427.13;;;8.54;86.32
19005;BME280;9635;52.078;8.648;2023-02-17T08:11:42;100408.63;;;8.51;87.73
19005;BME280;9635;52.078;8.648;2023-02-17T08:17:03;100426.38;;;8.52;87.14
19005;BME280;9635;52.078;8.648;2023-02-17T08:22:06;100404.56;;;8.82;86.10
19005;BME280;9635;52.078;8.648;2023-02-17T08:27:11;100407.53;;;8.41;88.98
19005;BME280;9635;52.078;8.648;2023-02-17T08:32:15;100405.25;;;8.60;89.16
19005;BME280;9635;52.078;8.648;2023-02-17T08:37:18;100381.81;;;8.38;90.93
19005;BME280;9635;52.078;8.648;2023-02-17T08:42:23;100383.75;;;8.49;91.21
19005;BME280;9635;52.078;8.648;2023-02-17T08:47:26;100375.19;;;8.44;91.70
19005;BME280;9635;52.078;8.648;2023-02-17T08:52:29;100388.38;;;8.47;91.83
19005;BME280;9635;52.078;8.648;2023-02-17T08:57:33;100357.41;;;8.56;91.44
19005;BME280;9635;52.078;8.648;2023-02-17T09:02:36;100380.34;;;8.34;92.12
19005;BME280;9635;52.078;8.648;2023-02-17T09:07:39;100380.44;;;8.33;92.66
19005;BME280;9635;52.078;8.648;2023-02-17T09:12:44;100391.47;;;8.54;91.52
19005;BME280;9635;52.078;8.648;2023-02-17T09:17:47;100424.97;;;8.59;91.02
19005;BME280;9635;52.078;8.648;2023-02-17T09:22:49;100388.31;;;8.73;90.73
19005;BME280;9635;52.078;8.648;2023-02-17T09:27:54;100389.25;;;8.72;90.92
19005;BME280;9635;52.078;8.648;2023-02-17T09:33:00;100414.06;;;8.50;92.54
19005;BME280;9635;52.078;8.648;2023-02-17T09:38:03;100423.84;;;8.75;91.38
19005;BME280;9635;52.078;8.648;2023-02-17T09:43:11;100399.09;;;8.84;90.33
19005;BME280;9635;52.078;8.648;2023-02-17T09:48:17;100441.03;;;8.72;91.29
19005;BME280;9635;52.078;8.648;2023-02-17T09:53:28;100456.41;;;8.81;90.83
19005;BME280;9635;52.078;8.648;2023-02-17T09:58:37;100417.28;;;8.92;90.52
19005;BME280;9635;52.078;8.648;2023-02-17T10:03:43;100440.19;;;8.96;89.67
19005;BME280;9635;52.078;8.648;2023-02-17T10:08:51;100425.63;;;9.00;89.33
19005;BME280;9635;52.078;8.648;2023-02-17T10:14:00;100450.88;;;9.09;88.19
19005;BME280;9635;52.078;8.648;2023-02-17T10:19:09;100416.06;;;8.96;88.83
19005;BME280;9635;52.078;8.648;2023-02-17T10:24:14;100395.19;;;9.36;86.95
19005;BME280;9635;52.078;8.648;2023-02-17T10:29:30;100368.94;;;9.17;86.52
19005;BME280;9635;52.078;8.648;2023-02-17T10:34:39;100389.03;;;9.47;84.34
19005;BME280;9635;52.078;8.648;2023-02-17T10:39:47;100388.38;;;9.43;84.06
19005;BME280;9635;52.078;8.648;2023-02-17T10:44:54;100399.72;;;9.36;83.87
19005;BME280;9635;52.078;8.648;2023-02-17T10:49:58;100382.34;;;9.64;81.96
19005;BME280;9635;52.078;8.648;2023-02-17T10:55:04;100356.78;;;9.82;80.82
19005;BME280;9635;52.078;8.648;2023-02-17T11:00:24;100331.44;;;10.09;79.45
19005;BME280;9635;52.078;8.648;2023-02-17T11:05:30;100348.84;;;9.81;79.55
19005;BME280;9635;52.078;8.648;2023-02-17T11:10:35;100345.34;;;10.14;78.55
19005;BME280;9635;52.078;8.648;2023-02-17T11:15:44;100337.53;;;10.33;76.94
19005;BME280;9635;52.078;8.648;2023-02-17T11:20:48;100332.16;;;10.33;76.45
19005;BME280;9635;52.078;8.648;2023-02-17T11:25:56;100325.06;;;10.55;76.03
19005;BME280;9635;52.078;8.648;2023-02-17T11:31:01;100330.03;;;10.71;75.00
19005;BME280;9635;52.078;8.648;2023-02-17T11:36:07;100328.78;;;10.75;74.55
19005;BME280;9635;52.078;8.648;2023-02-17T11:41:14;100313.34;;;10.56;74.75
19005;BME280;9635;52.078;8.648;2023-02-17T11:46:24;100298.56;;;10.50;73.84
19005;BME280;9635;52.078;8.648;2023-02-17T11:51:37;100317.69;;;10.68;73.26
19005;BME280;9635;52.078;8.648;2023-02-17T11:56:51;100272.91;;;10.90;72.39
19005;BME280;9635;52.078;8.648;2023-02-17T12:02:03;100252.53;;;10.87;72.40
19005;BME280;9635;52.078;8.648;2023-02-17T12:07:28;100313.94;;;10.59;72.48
19005;BME280;9635;52.078;8.648;2023-02-17T12:12:45;100288.13;;;10.68;73.06
19005;BME280;9635;52.078;8.648;2023-02-17T12:18:01;100309.50;;;11.02;71.99
19005;BME280;9635;52.078;8.648;2023-02-17T12:23:22;100339.72;;;10.51;73.56
19005;BME280;9635;52.078;8.648;2023-02-17T12:28:47;100294.03;;;10.62;73.43
19005;BME280;9635;52.078;8.648;2023-02-17T12:34:00;100283.72;;;10.99;73.01
19005;BME280;9635;52.078;8.648;2023-02-17T12:39:17;100302.00;;;10.84;72.45
19005;BME280;9635;52.078;8.648;2023-02-17T12:44:24;100313.44;;;10.66;73.66
19005;BME280;9635;52.078;8.648;2023-02-17T12:49:33;100330.41;;;10.55;73.19
19005;BME280;9635;52.078;8.648;2023-02-17T12:54:41;100317.81;;;10.67;73.87
19005;BME280;9635;52.078;8.648;2023-02-17T12:59:47;100306.75;;;10.49;74.36
19005;BME280;9635;52.078;8.648;2023-02-17T13:04:53;100303.69;;;10.42;74.58
19005;BME280;9635;52.078;8.648;2023-02-17T13:09:58;100320.75;;;10.64;74.34
19005;BME280;9635;52.078;8.648;2023-02-17T13:15:03;100314.91;;;10.58;74.51
19005;BME280;9635;52.078;8.648;2023-02-17T13:20:37;100318.97;;;10.42;75.22
19005;BME280;9635;52.078;8.648;2023-02-17T13:25:42;100345.09;;;10.28;75.59
19005;BME280;9635;52.078;8.648;2023-02-17T13:30:45;100353.63;;;10.56;75.26
19005;BME280;9635;52.078;8.648;2023-02-17T13:35:54;100360.38;;;10.16;77.85
19005;BME280;9635;52.078;8.648;2023-02-17T13:40:58;100382.19;;;10.01;80.15
19005;BME280;9635;52.078;8.648;2023-02-17T13:46:04;100389.63;;;9.97;83.11
19005;BME280;9635;52.078;8.648;2023-02-17T13:51:23;100408.47;;;9.38;88.23
19005;BME280;9635;52.078;8.648;2023-02-17T13:56:28;100397.47;;;9.65;88.27
19005;BME280;9635;52.078;8.648;2023-02-17T14:01:31;100402.66;;;9.44;89.92
19005;BME280;9635;52.078;8.648;2023-02-17T14:06:38;100404.94;;;9.37;91.46
19005;BME280;9635;52.078;8.648;2023-02-17T14:11:42;100399.63;;;9.48;92.68
19005;BME280;9635;52.078;8.648;2023-02-17T14:16:56;100382.91;;;9.45;92.43
19005;BME280;9635;52.078;8.648;2023-02-17T14:22:02;100401.00;;;9.19;93.61
19005;BME280;9635;52.078;8.648;2023-02-17T14:27:07;100418.88;;;8.94;94.38
19005;BME280;9635;52.078;8.648;2023-02-17T14:32:27;100399.78;;;9.23;93.33
19005;BME280;9635;52.078;8.648;2023-02-17T14:37:32;100413.78;;;9.50;91.11
19005;BME280;9635;52.078;8.648;2023-02-17T14:42:37;100392.72;;;9.22;91.54
19005;BME280;9635;52.078;8.648;2023-02-17T14:47:40;100415.16;;;9.32;91.37
19005;BME280;9635;52.078;8.648;2023-02-17T14:52:45;100420.78;;;9.40;90.93
19005;BME280;9635;52.078;8.648;2023-02-17T14:57:48;100426.56;;;9.23;91.86
19005;BME280;9635;52.078;8.648;2023-02-17T15:02:51;100442.66;;;9.23;91.84
19005;BME280;9635;52.078;8.648;2023-02-17T15:07:59;100419.63;;;9.20;89.62
19005;BME280;9635;52.078;8.648;2023-02-17T15:13:02;100450.75;;;9.34;87.75
19005;BME280;9635;52.078;8.648;2023-02-17T15:18:05;100441.94;;;9.56;86.57
19005;BME280;9635;52.078;8.648;2023-02-17T15:23:11;100449.47;;;9.51;86.78
19005;BME280;9635;52.078;8.648;2023-02-17T15:28:17;100453.47;;;9.45;86.85
19005;BME280;9635;52.078;8.648;2023-02-17T15:33:20;100451.44;;;9.49;86.54
19005;BME280;9635;52.078;8.648;2023-02-17T15:38:25;100460.84;;;9.55;86.42
19005;BME280;9635;52.078;8.648;2023-02-17T15:43:32;100462.81;;;9.64;85.43
19005;BME280;9635;52.078;8.648;2023-02-17T15:48:37;100477.22;;;9.63;85.85
19005;BME280;9635;52.078;8.648;2023-02-17T15:53:42;100458.72;;;8.99;88.66
19005;BME280;9635;52.078;8.648;2023-02-17T15:58:45;100463.91;;;9.37;86.78
19005;BME280;9635;52.078;8.648;2023-02-17T16:03:49;100471.72;;;9.40;85.60
19005;BME280;9635;52.078;8.648;2023-02-17T16:08:53;100466.59;;;9.37;85.29
19005;BME280;9635;52.078;8.648;2023-02-17T16:13:59;100488.91;;;9.62;86.05
19005;BME280;9635;52.078;8.648;2023-02-17T16:19:02;100488.78;;;9.63;85.38
19005;BME280;9635;52.078;8.648;2023-02-17T16:24:06;100501.53;;;9.24;87.03
19005;BME280;9635;52.078;8.648;2023-02-17T16:29:13;100504.25;;;8.99;88.17
19005;BME280;9635;52.078;8.648;2023-02-17T16:34:18;100503.56;;;9.21;87.29
19005;BME280;9635;52.078;8.648;2023-02-17T16:39:22;100539.00;;;9.00;89.91
19005;BME280;9635;52.078;8.648;2023-02-17T16:44:25;100538.84;;;8.78;90.20
19005;BME280;9635;52.078;8.648;2023-02-17T16:49:30;100543.03;;;9.19;87.90
19005;BME280;9635;52.078;8.648;2023-02-17T16:54:37;100558.28;;;9.66;84.70
19005;BME280;9635;52.078;8.648;2023-02-17T16:59:40;100551.38;;;9.51;84.02
19005;BME280;9635;52.078;8.648;2023-02-17T17:04:43;100567.81;;;9.46;83.83
19005;BME280;9635;52.078;8.648;2023-02-17T17:09:47;100595.81;;;9.42;82.88
19005;BME280;9635;52.078;8.648;2023-02-17T17:15:11;100571.38;;;9.71;82.17
19005;BME280;9635;52.078;8.648;2023-02-17T17:20:19;100589.06;;;9.37;82.74
19005;BME280;9635;52.078;8.648;2023-02-17T17:25:23;100600.03;;;9.34;82.18
19005;BME280;9635;52.078;8.648;2023-02-17T17:30:29;100601.84;;;9.70;80.89
19005;BME280;9635;52.078;8.648;2023-02-17T17:35:33;100582.00;;;9.60;80.35
19005;BME280;9635;52.078;8.648;2023-02-17T17:40:37;100580.47;;;9.44;79.19
19005;BME280;9635;52.078;8.648;2023-02-17T17:45:50;100579.88;;;9.89;77.73
19005;BME280;9635;52.078;8.648;2023-02-17T17:50:53;100594.47;;;9.61;77.75
19005;BME280;9635;52.078;8.648;2023-02-17T17:55:57;100617.75;;;9.84;77.16
19005;BME280;9635;52.078;8.648;2023-02-17T18:01:00;100601.28;;;9.78;77.47
19005;BME280;9635;52.078;8.648;2023-02-17T18:06:04;100628.00;;;9.79;77.82
19005;BME280;9635;52.078;8.648;2023-02-17T18:11:11;100640.66;;;9.77;77.43
19005;BME280;9635;52.078;8.648;2023-02-17T18:16:15;100662.59;;;9.71;77.42
19005;BME280;9635;52.078;8.648;2023-02-17T18:21:20;100698.69;;;10.39;76.69
19005;BME280;9635;52.078;8.648;2023-02-17T18:26:24;100709.31;;;9.30;81.35
19005;BME280;9635;52.078;8.648;2023-02-17T18:31:27;100724.78;;;8.61;87.93
19005;BME280;9635;52.078;8.648;2023-02-17T18:36:30;100731.81;;;7.81;97.22
19005;BME280;9635;52.078;8.648;2023-02-17T18:41:34;100762.59;;;7.73;94.45
19005;BME280;9635;52.078;8.648;2023-02-17T18:46:38;100757.13;;;7.61;93.16
19005;BME280;9635;52.078;8.648;2023-02-17T18:51:41;100777.56;;;7.90;91.01
19005;BME280;9635;52.078;8.648;2023-02-17T18:56:45;100779.16;;;7.79;90.86
19005;BME280;9635;52.078;8.648;2023-02-17T19:01:48;100792.16;;;7.99;91.24
19005;BME280;9635;52.078;8.648;2023-02-17T19:06:51;100793.88;;;7.43;92.19
19005;BME280;9635;52.078;8.648;2023-02-17T19:11:55;100803.44;;;8.04;88.61
19005;BME280;9635;52.078;8.648;2023-02-17T19:16:58;100802.56;;;7.89;87.06
19005;BME280;9635;52.078;8.648;2023-02-17T19:22:01;100814.22;;;8.03;84.83
19005;BME280;9635;52.078;8.648;2023-02-17T19:27:10;100813.66;;;7.83;82.43
19005;BME280;9635;52.078;8.648;2023-02-17T19:32:13;100814.81;;;7.93;80.48
19005;BME280;9635;52.078;8.648;2023-02-17T19:37:16;100814.03;;;7.91;79.46
19005;BME280;9635;52.078;8.648;2023-02-17T19:42:20;100808.59;;;7.50;79.55
19005;BME280;9635;52.078;8.648;2023-02-17T19:47:23;100817.41;;;7.66;79.20
19005;BME280;9635;52.078;8.648;2023-02-17T19:52:25;100834.47;;;7.49;78.81
19005;BME280;9635;52.078;8.648;2023-02-17T19:57:30;100827.97;;;7.54;78.83
19005;BME280;9635;52.078;8.648;2023-02-17T20:02:33;100838.59;;;7.84;78.91
19005;BME280;9635;52.078;8.648;2023-02-17T20:07:35;100842.78;;;7.59;78.00
19005;BME280;9635;52.078;8.648;2023-02-17T20:12:40;100851.34;;;7.36;76.24
19005;BME280;9635;52.078;8.648;2023-02-17T20:17:43;100845.59;;;7.27;75.73
19005;BME280;9635;52.078;8.648;2023-02-17T20:22:46;100862.63;;;7.41;74.50
19005;BME280;9635;52.078;8.648;2023-02-17T20:27:51;100861.31;;;7.62;74.04
19005;BME280;9635;52.078;8.648;2023-02-17T20:32:54;100865.94;;;7.30;74.42
19005;BME280;9635;52.078;8.648;2023-02-17T20:37:57;100869.88;;;7.39;70.42
19005;BME280;9635;52.078;8.648;2023-02-17T20:43:02;100863.34;;;7.28;70.88
19005;BME280;9635;52.078;8.648;2023-02-17T20:48:07;100875.94;;;6.96;68.66
19005;BME280;9635;52.078;8.648;2023-02-17T20:53:10;100881.88;;;7.32;67.88
19005;BME280;9635;52.078;8.648;2023-02-17T20:58:15;100891.38;;;6.91;67.54
19005;BME280;9635;52.078;8.648;2023-02-17T21:03:17;100886.09;;;7.36;68.54
19005;BME280;9635;52.078;8.648;2023-02-17T21:08:20;100879.16;;;7.17;66.96
19005;BME280;9635;52.078;8.648;2023-02-17T21:13:25;100881.19;;;6.98;66.75
19005;BME280;9635;52.078;8.648;2023-02-17T21:18:30;100894.56;;;7.28;67.40
19005;BME280;9635;52.078;8.648;2023-02-17T21:23:33;100899.16;;;7.40;69.38
19005;BME280;9635;52.078;8.648;2023-02-17T21:28:37;100883.41;;;7.05;71.76
19005;BME280;9635;52.078;8.648;2023-02-17T21:33:40;100887.97;;;7.19;70.24
19005;BME280;9635;52.078;8.648;2023-02-17T21:38:43;100901.97;;;6.93;67.70
19005;BME280;9635;52.078;8.648;2023-02-17T21:43:48;100904.16;;;7.16;67.83
19005;BME280;9635;52.078;8.648;2023-02-17T21:49:09;100921.28;;;7.28;66.34
19005;BME280;9635;52.078;8.648;2023-02-17T21:54:12;100912.50;;;7.26;67.04
19005;BME280;9635;52.078;8.648;2023-02-17T21:59:16;100915.38;;;7.07;65.92
19005;BME280;9635;52.078;8.648;2023-02-17T22:04:19;100907.41;;;6.91;64.45
19005;BME280;9635;52.078;8.648;2023-02-17T22:09:22;100929.16;;;7.15;64.54
19005;BME280;9635;52.078;8.648;2023-02-17T22:14:28;100935.19;;;7.19;64.05
19005;BME280;9635;52.078;8.648;2023-02-17T22:19:30;100934.00;;;7.09;63.96
19005;BME280;9635;52.078;8.648;2023-02-17T22:24:33;100928.34;;;7.59;63.37
19005;BME280;9635;52.078;8.648;2023-02-17T22:29:38;100924.63;;;7.32;63.93
19005;BME280;9635;52.078;8.648;2023-02-17T22:34:40;100930.13;;;7.44;64.49
19005;BME280;9635;52.078;8.648;2023-02-17T22:39:43;100930.84;;;7.32;63.61
19005;BME280;9635;52.078;8.648;2023-02-17T22:44:48;100923.28;;;7.55;63.77
19005;BME280;9635;52.078;8.648;2023-02-17T22:49:51;100902.44;;;7.15;63.58
19005;BME280;9635;52.078;8.648;2023-02-17T22:54:54;100911.25;;;7.32;63.80
19005;BME280;9635;52.078;8.648;2023-02-17T22:59:58;100916.44;;;7.35;64.07
19005;BME280;9635;52.078;8.648;2023-02-17T23:05:01;100913.75;;;7.35;64.08
19005;BME280;9635;52.078;8.648;2023-02-17T23:10:05;100915.13;;;7.12;64.45
19005;BME280;9635;52.078;8.648;2023-02-17T23:15:11;100917.53;;;7.16;65.26
19005;BME280;9635;52.078;8.648;2023-02-17T23:20:14;100911.59;;;7.41;64.30
19005;BME280;9635;52.078;8.648;2023-02-17T23:25:17;100900.63;;;7.46;64.28
19005;BME280;9635;52.078;8.648;2023-02-17T23:30:21;100917.34;;;7.49;63.51
19005;BME280;9635;52.078;8.648;2023-02-17T23:35:24;100903.53;;;7.27;64.00
19005;BME280;9635;52.078;8.648;2023-02-17T23:40:27;100904.69;;;7.07;64.62
19005;BME280;9635;52.078;8.648;2023-02-17T23:45:32;100907.03;;;7.13;64.81
19005;BME280;9635;52.078;8.648;2023-02-17T23:50:35;100904.09;;;7.02;65.49
19005;BME280;9635;52.078;8.648;2023-02-17T23:55:37;100908.31;;;7.06;64.78
